sensor_id;sensor_type;location;lat;lon;timestamp;temperature;humidity
18153;DHT22;9202;51.578;7.734;2022-12-18T00:00:21;-9.50;99.90
18153;DHT22;9202;51.578;7.734;2022-12-18T00:02:23;-9.60;99.90
18153;DHT22;9202;51.578;7.734;2022-12-18T00:04:26;-9.50;99.90
18153;DHT22;9202;51.578;7.734;2022-12-18T00:06:29;-9.40;99.90
18153;DHT22;9202;51.578;7.734;2022-12-18T00:08:35;-9.50;99.90
18153;DHT22;9202;51.578;7.734;2022-12-18T00:10:37;-9.40;99.90
18153;DHT22;9202;51.578;7.734;2022-12-18T00:12:40;-9.40;99.90
18153;DHT22;9202;51.578;7.734;2022-12-18T00:14:42;-9.30;99.90
18153;DHT22;9202;51.578;7.734;2022-12-18T00:16:45;-9.30;99.90
18153;DHT22;9202;51.578;7.734;2022-12-18T00:18:48;-9.10;99.90
18153;DHT22;9202;51.578;7.734;2022-12-18T00:20:50;-9.10;99.90
18153;DHT22;9202;51.578;7.734;2022-12-18T00:22:53;-9.10;99.90
18153;DHT22;9202;51.578;7.734;2022-12-18T00:24:55;-9.10;99.90
18153;DHT22;9202;51.578;7.734;2022-12-18T00:26:58;-9.20;99.90
18153;DHT22;9202;51.578;7.734;2022-12-18T00:29:01;-9.30;99.90
18153;DHT22;9202;51.578;7.734;2022-12-18T00:31:06;-9.30;99.90
18153;DHT22;9202;51.578;7.734;2022-12-18T00:33:09;-9.40;99.90
18153;DHT22;9202;51.578;7.734;2022-12-18T00:35:12;-9.30;99.90
18153;DHT22;9202;51.578;7.734;2022-12-18T00:37:14;-9.30;99.90
18153;DHT22;9202;51.578;7.734;2022-12-18T00:39:19;-9.30;99.90
18153;DHT22;9202;51.578;7.734;2022-12-18T00:41:21;-9.40;99.90
18153;DHT22;9202;51.578;7.734;2022-12-18T00:43:43;-9.40;99.90
18153;DHT22;9202;51.578;7.734;2022-12-18T00:45:46;-9.40;99.90
18153;DHT22;9202;51.578;7.734;2022-12-18T00:47:49;-9.50;99.90
18153;DHT22;9202;51.578;7.734;2022-12-18T00:49:51;-9.50;99.90
18153;DHT22;9202;51.578;7.734;2022-12-18T00:51:55;-9.40;99.90
18153;DHT22;9202;51.578;7.734;2022-12-18T00:53:58;-9.40;99.90
18153;DHT22;9202;51.578;7.734;2022-12-18T00:56:01;-9.30;99.90
18153;DHT22;9202;51.578;7.734;2022-12-18T00:58:03;-9.40;99.90
18153;DHT22;9202;51.578;7.734;2022-12-18T01:00:08;-9.40;99.90
18153;DHT22;9202;51.578;7.734;2022-12-18T01:02:11;-9.30;99.90
18153;DHT22;9202;51.578;7.734;2022-12-18T01:04:14;-9.30;99.90
18153;DHT22;9202;51.578;7.734;2022-12-18T01:06:18;-9.30;99.90
18153;DHT22;9202;51.578;7.734;2022-12-18T01:08:22;-9.30;99.90
18153;DHT22;9202;51.578;7.734;2022-12-18T01:10:25;-9.30;99.90
18153;DHT22;9202;51.578;7.734;2022-12-18T01:12:27;-9.40;99.90
18153;DHT22;9202;51.578;7.734;2022-12-18T01:14:30;-9.50;99.90
18153;DHT22;9202;51.578;7.734;2022-12-18T01:16:34;-9.50;99.90
18153;DHT22;9202;51.578;7.734;2022-12-18T01:18:38;-9.50;99.90
18153;DHT22;9202;51.578;7.734;2022-12-18T01:20:42;-9.60;99.90
18153;DHT22;9202;51.578;7.734;2022-12-18T01:22:45;-9.60;99.90
18153;DHT22;9202;51.578;7.734;2022-12-18T01:24:47;-9.70;99.90
18153;DHT22;9202;51.578;7.734;2022-12-18T01:26:50;-9.60;99.90
18153;DHT22;9202;51.578;7.734;2022-12-18T01:28:53;-9.60;99.90
18153;DHT22;9202;51.578;7.734;2022-12-18T01:30:58;-9.60;99.90
18153;DHT22;9202;51.578;7.734;2022-12-18T01:33:02;-9.60;99.90
18153;DHT22;9202;51.578;7.734;2022-12-18T01:35:07;-9.60;99.90
18153;DHT22;9202;51.578;7.734;2022-12-18T01:37:10;-9.60;99.90
18153;DHT22;9202;51.578;7.734;2022-12-18T01:39:13;-9.70;99.90
18153;DHT22;9202;51.578;7.734;2022-12-18T01:41:19;-9.70;99.90
18153;DHT22;9202;51.578;7.734;2022-12-18T01:43:21;-9.70;99.90
18153;DHT22;9202;51.578;7.734;2022-12-18T01:45:25;-9.70;99.90
18153;DHT22;9202;51.578;7.734;2022-12-18T01:47:30;-9.60;99.90
18153;DHT22;9202;51.578;7.734;2022-12-18T01:49:33;-9.60;99.90
18153;DHT22;9202;51.578;7.734;2022-12-18T01:51:36;-9.00;99.90
18153;DHT22;9202;51.578;7.734;2022-12-18T01:53:40;-9.80;99.90
18153;DHT22;9202;51.578;7.734;2022-12-18T01:55:45;-9.60;99.90
18153;DHT22;9202;51.578;7.734;2022-12-18T01:57:48;-9.80;99.90
18153;DHT22;9202;51.578;7.734;2022-12-18T01:59:52;-9.70;99.90
18153;DHT22;9202;51.578;7.734;2022-12-18T02:01:56;-9.60;99.90
18153;DHT22;9202;51.578;7.734;2022-12-18T02:04:14;-9.70;99.90
18153;DHT22;9202;51.578;7.734;2022-12-18T02:06:20;-9.60;99.90
18153;DHT22;9202;51.578;7.734;2022-12-18T02:08:26;-9.60;99.90
18153;DHT22;9202;51.578;7.734;2022-12-18T02:10:31;-7.70;99.90
18153;DHT22;9202;51.578;7.734;2022-12-18T02:12:38;-9.70;99.90
18153;DHT22;9202;51.578;7.734;2022-12-18T02:14:41;-9.70;99.90
18153;DHT22;9202;51.578;7.734;2022-12-18T02:16:46;-9.80;99.90
18153;DHT22;9202;51.578;7.734;2022-12-18T02:18:50;-9.80;99.90
18153;DHT22;9202;51.578;7.734;2022-12-18T02:20:55;-9.80;99.90
18153;DHT22;9202;51.578;7.734;2022-12-18T02:23:04;-9.90;99.90
18153;DHT22;9202;51.578;7.734;2022-12-18T02:25:11;-10.00;99.90
18153;DHT22;9202;51.578;7.734;2022-12-18T02:27:13;-10.00;99.90
18153;DHT22;9202;51.578;7.734;2022-12-18T02:29:17;-10.00;99.90
18153;DHT22;9202;51.578;7.734;2022-12-18T02:31:22;-10.00;99.90
18153;DHT22;9202;51.578;7.734;2022-12-18T02:33:26;-10.00;99.90
18153;DHT22;9202;51.578;7.734;2022-12-18T02:35:30;-10.10;99.90
18153;DHT22;9202;51.578;7.734;2022-12-18T02:37:34;-10.10;99.90
18153;DHT22;9202;51.578;7.734;2022-12-18T02:39:39;-10.20;99.90
18153;DHT22;9202;51.578;7.734;2022-12-18T02:41:44;-10.10;99.90
18153;DHT22;9202;51.578;7.734;2022-12-18T02:43:48;-10.20;99.90
18153;DHT22;9202;51.578;7.734;2022-12-18T02:45:53;-10.20;99.90
18153;DHT22;9202;51.578;7.734;2022-12-18T02:47:56;-10.10;99.90
18153;DHT22;9202;51.578;7.734;2022-12-18T02:50:02;-10.20;99.90
18153;DHT22;9202;51.578;7.734;2022-12-18T02:52:09;-10.20;99.90
18153;DHT22;9202;51.578;7.734;2022-12-18T02:54:15;-10.20;99.90
18153;DHT22;9202;51.578;7.734;2022-12-18T02:56:19;-10.20;99.90
18153;DHT22;9202;51.578;7.734;2022-12-18T02:58:26;-10.10;99.90
18153;DHT22;9202;51.578;7.734;2022-12-18T03:00:33;-10.30;99.90
18153;DHT22;9202;51.578;7.734;2022-12-18T03:02:38;-10.30;99.90
18153;DHT22;9202;51.578;7.734;2022-12-18T03:04:43;-10.30;99.90
18153;DHT22;9202;51.578;7.734;2022-12-18T03:06:48;-10.40;99.90
18153;DHT22;9202;51.578;7.734;2022-12-18T03:08:54;-10.40;99.90
18153;DHT22;9202;51.578;7.734;2022-12-18T03:10:59;-10.30;99.90
18153;DHT22;9202;51.578;7.734;2022-12-18T03:13:04;-10.40;99.90
18153;DHT22;9202;51.578;7.734;2022-12-18T03:15:09;-10.50;99.90
18153;DHT22;9202;51.578;7.734;2022-12-18T03:17:17;-9.40;99.90
18153;DHT22;9202;51.578;7.734;2022-12-18T03:19:22;-10.60;99.90
18153;DHT22;9202;51.578;7.734;2022-12-18T03:21:27;-10.40;99.90
18153;DHT22;9202;51.578;7.734;2022-12-18T03:23:34;-10.20;99.90
18153;DHT22;9202;51.578;7.734;2022-12-18T03:25:38;-10.10;99.90
18153;DHT22;9202;51.578;7.734;2022-12-18T03:27:43;-10.10;99.90
18153;DHT22;9202;51.578;7.734;2022-12-18T03:29:48;-10.10;99.90
18153;DHT22;9202;51.578;7.734;2022-12-18T03:31:54;-10.10;99.90
18153;DHT22;9202;51.578;7.734;2022-12-18T03:33:58;-10.10;99.90
18153;DHT22;9202;51.578;7.734;2022-12-18T03:36:04;-10.10;99.90
18153;DHT22;9202;51.578;7.734;2022-12-18T03:38:07;-10.20;99.90
18153;DHT22;9202;51.578;7.734;2022-12-18T03:40:12;-10.20;99.90
18153;DHT22;9202;51.578;7.734;2022-12-18T03:42:15;-10.20;99.90
18153;DHT22;9202;51.578;7.734;2022-12-18T03:44:21;-10.20;99.90
18153;DHT22;9202;51.578;7.734;2022-12-18T03:46:27;-10.30;99.90
18153;DHT22;9202;51.578;7.734;2022-12-18T03:48:31;-10.50;99.90
18153;DHT22;9202;51.578;7.734;2022-12-18T03:50:40;-10.60;99.90
18153;DHT22;9202;51.578;7.734;2022-12-18T03:52:45;-10.60;99.90
18153;DHT22;9202;51.578;7.734;2022-12-18T03:54:48;-10.40;99.90
18153;DHT22;9202;51.578;7.734;2022-12-18T03:56:53;-10.30;99.90
18153;DHT22;9202;51.578;7.734;2022-12-18T03:58:56;-10.20;99.90
18153;DHT22;9202;51.578;7.734;2022-12-18T04:01:01;-10.30;99.90
18153;DHT22;9202;51.578;7.734;2022-12-18T04:03:06;-10.30;99.90
18153;DHT22;9202;51.578;7.734;2022-12-18T04:05:12;-10.40;99.90
18153;DHT22;9202;51.578;7.734;2022-12-18T04:07:15;-10.50;99.90
18153;DHT22;9202;51.578;7.734;2022-12-18T04:09:19;-10.50;99.90
18153;DHT22;9202;51.578;7.734;2022-12-18T04:11:22;-10.50;99.90
18153;DHT22;9202;51.578;7.734;2022-12-18T04:13:27;-10.40;99.90
18153;DHT22;9202;51.578;7.734;2022-12-18T04:15:30;-10.40;99.90
18153;DHT22;9202;51.578;7.734;2022-12-18T04:17:34;-10.30;99.90
18153;DHT22;9202;51.578;7.734;2022-12-18T04:19:37;-10.40;99.90
18153;DHT22;9202;51.578;7.734;2022-12-18T04:21:39;-10.40;99.90
18153;DHT22;9202;51.578;7.734;2022-12-18T04:23:44;-10.30;99.90
18153;DHT22;9202;51.578;7.734;2022-12-18T04:25:47;-10.30;99.90
18153;DHT22;9202;51.578;7.734;2022-12-18T04:27:52;-10.20;99.90
18153;DHT22;9202;51.578;7.734;2022-12-18T04:29:54;-10.30;99.90
18153;DHT22;9202;51.578;7.734;2022-12-18T04:31:57;-10.30;99.90
18153;DHT22;9202;51.578;7.734;2022-12-18T04:34:01;-10.30;99.90
18153;DHT22;9202;51.578;7.734;2022-12-18T04:36:04;-10.30;99.90
18153;DHT22;9202;51.578;7.734;2022-12-18T04:38:07;-10.30;99.90
18153;DHT22;9202;51.578;7.734;2022-12-18T04:40:11;-10.30;99.90
18153;DHT22;9202;51.578;7.734;2022-12-18T04:42:16;-10.30;99.90
18153;DHT22;9202;51.578;7.734;2022-12-18T04:44:18;-10.30;99.90
18153;DHT22;9202;51.578;7.734;2022-12-18T04:46:21;-10.20;99.90
18153;DHT22;9202;51.578;7.734;2022-12-18T04:48:23;-10.20;99.90
18153;DHT22;9202;51.578;7.734;2022-12-18T04:50:26;-10.40;99.90
18153;DHT22;9202;51.578;7.734;2022-12-18T04:52:29;-10.30;99.90
18153;DHT22;9202;51.578;7.734;2022-12-18T04:54:31;-10.30;99.90
18153;DHT22;9202;51.578;7.734;2022-12-18T04:56:34;-10.30;99.90
18153;DHT22;9202;51.578;7.734;2022-12-18T04:58:37;-10.30;99.90
18153;DHT22;9202;51.578;7.734;2022-12-18T05:00:39;-10.30;99.90
18153;DHT22;9202;51.578;7.734;2022-12-18T05:02:42;-10.20;99.90
18153;DHT22;9202;51.578;7.734;2022-12-18T05:04:44;-10.20;99.90
18153;DHT22;9202;51.578;7.734;2022-12-18T05:06:47;-10.30;99.90
18153;DHT22;9202;51.578;7.734;2022-12-18T05:08:50;-10.40;99.90
18153;DHT22;9202;51.578;7.734;2022-12-18T05:10:58;-10.30;99.90
18153;DHT22;9202;51.578;7.734;2022-12-18T05:13:01;-10.30;99.90
18153;DHT22;9202;51.578;7.734;2022-12-18T05:15:04;-10.30;99.90
18153;DHT22;9202;51.578;7.734;2022-12-18T05:17:07;-10.30;99.90
18153;DHT22;9202;51.578;7.734;2022-12-18T05:19:10;-10.40;99.90
18153;DHT22;9202;51.578;7.734;2022-12-18T05:21:13;-10.30;99.90
18153;DHT22;9202;51.578;7.734;2022-12-18T05:23:15;-10.20;99.90
18153;DHT22;9202;51.578;7.734;2022-12-18T05:25:18;-10.20;99.90
18153;DHT22;9202;51.578;7.734;2022-12-18T05:27:22;-10.20;99.90
18153;DHT22;9202;51.578;7.734;2022-12-18T05:29:24;-10.20;99.90
18153;DHT22;9202;51.578;7.734;2022-12-18T05:31:27;-10.20;99.90
18153;DHT22;9202;51.578;7.734;2022-12-18T05:33:30;-10.20;99.90
18153;DHT22;9202;51.578;7.734;2022-12-18T05:35:33;-10.20;99.90
18153;DHT22;9202;51.578;7.734;2022-12-18T05:37:36;-10.20;99.90
18153;DHT22;9202;51.578;7.734;2022-12-18T05:39:40;-10.30;99.90
18153;DHT22;9202;51.578;7.734;2022-12-18T05:41:43;-10.30;99.90
18153;DHT22;9202;51.578;7.734;2022-12-18T05:43:45;-10.30;99.90
18153;DHT22;9202;51.578;7.734;2022-12-18T05:45:49;-10.30;99.90
18153;DHT22;9202;51.578;7.734;2022-12-18T05:47:51;-10.30;99.90
18153;DHT22;9202;51.578;7.734;2022-12-18T05:49:54;-10.40;99.90
18153;DHT22;9202;51.578;7.734;2022-12-18T05:51:57;-10.40;99.90
18153;DHT22;9202;51.578;7.734;2022-12-18T05:53:59;-10.50;99.90
18153;DHT22;9202;51.578;7.734;2022-12-18T05:56:02;-10.50;99.90
18153;DHT22;9202;51.578;7.734;2022-12-18T05:58:06;-10.50;99.90
18153;DHT22;9202;51.578;7.734;2022-12-18T06:00:10;-10.50;99.90
18153;DHT22;9202;51.578;7.734;2022-12-18T06:02:14;-10.50;99.90
18153;DHT22;9202;51.578;7.734;2022-12-18T06:04:17;-10.60;99.90
18153;DHT22;9202;51.578;7.734;2022-12-18T06:06:20;-10.60;99.90
18153;DHT22;9202;51.578;7.734;2022-12-18T06:08:24;-10.60;99.90
18153;DHT22;9202;51.578;7.734;2022-12-18T06:10:26;-10.60;99.90
18153;DHT22;9202;51.578;7.734;2022-12-18T06:12:29;-10.60;99.90
18153;DHT22;9202;51.578;7.734;2022-12-18T06:14:31;-10.60;99.90
18153;DHT22;9202;51.578;7.734;2022-12-18T06:16:34;-10.60;99.90
18153;DHT22;9202;51.578;7.734;2022-12-18T06:18:36;-10.60;99.90
18153;DHT22;9202;51.578;7.734;2022-12-18T06:20:39;-10.60;99.90
18153;DHT22;9202;51.578;7.734;2022-12-18T06:22:43;-10.50;99.90
18153;DHT22;9202;51.578;7.734;2022-12-18T06:24:45;-10.50;99.90
18153;DHT22;9202;51.578;7.734;2022-12-18T06:26:48;-10.50;99.90
18153;DHT22;9202;51.578;7.734;2022-12-18T06:28:51;-10.40;99.90
18153;DHT22;9202;51.578;7.734;2022-12-18T06:30:53;-10.40;99.90
18153;DHT22;9202;51.578;7.734;2022-12-18T06:32:56;-10.40;99.90
18153;DHT22;9202;51.578;7.734;2022-12-18T06:34:58;-10.40;99.90
18153;DHT22;9202;51.578;7.734;2022-12-18T06:37:01;-10.40;99.90
18153;DHT22;9202;51.578;7.734;2022-12-18T06:39:04;-10.40;99.90
18153;DHT22;9202;51.578;7.734;2022-12-18T06:41:07;-10.30;99.90
18153;DHT22;9202;51.578;7.734;2022-12-18T06:43:10;-10.40;99.90
18153;DHT22;9202;51.578;7.734;2022-12-18T06:45:16;-10.30;99.90
18153;DHT22;9202;51.578;7.734;2022-12-18T06:47:18;-10.20;99.90
18153;DHT22;9202;51.578;7.734;2022-12-18T06:49:21;-10.20;99.90
18153;DHT22;9202;51.578;7.734;2022-12-18T06:51:25;-10.10;99.90
18153;DHT22;9202;51.578;7.734;2022-12-18T06:53:28;-10.10;99.90
18153;DHT22;9202;51.578;7.734;2022-12-18T06:55:30;-10.20;99.90
18153;DHT22;9202;51.578;7.734;2022-12-18T06:57:33;-10.10;99.90
18153;DHT22;9202;51.578;7.734;2022-12-18T06:59:35;-10.20;99.90
18153;DHT22;9202;51.578;7.734;2022-12-18T07:01:38;-10.20;99.90
18153;DHT22;9202;51.578;7.734;2022-12-18T07:03:41;-10.20;99.90
18153;DHT22;9202;51.578;7.734;2022-12-18T07:05:45;-10.10;99.90
18153;DHT22;9202;51.578;7.734;2022-12-18T07:07:48;-10.10;99.90
18153;DHT22;9202;51.578;7.734;2022-12-18T07:09:50;-10.10;99.90
18153;DHT22;9202;51.578;7.734;2022-12-18T07:11:53;-10.10;99.90
18153;DHT22;9202;51.578;7.734;2022-12-18T07:13:55;-10.10;99.90
18153;DHT22;9202;51.578;7.734;2022-12-18T07:16:03;-10.10;99.90
18153;DHT22;9202;51.578;7.734;2022-12-18T07:18:07;-10.00;99.90
18153;DHT22;9202;51.578;7.734;2022-12-18T07:20:10;-10.00;99.90
18153;DHT22;9202;51.578;7.734;2022-12-18T07:22:13;-10.00;99.90
18153;DHT22;9202;51.578;7.734;2022-12-18T07:24:15;-9.90;99.90
18153;DHT22;9202;51.578;7.734;2022-12-18T07:26:19;-9.90;99.90
18153;DHT22;9202;51.578;7.734;2022-12-18T07:28:22;-9.90;99.90
18153;DHT22;9202;51.578;7.734;2022-12-18T07:30:27;-9.90;99.90
18153;DHT22;9202;51.578;7.734;2022-12-18T07:32:32;-9.90;99.90
18153;DHT22;9202;51.578;7.734;2022-12-18T07:34:37;-9.90;99.90
18153;DHT22;9202;51.578;7.734;2022-12-18T07:36:41;-9.80;99.90
18153;DHT22;9202;51.578;7.734;2022-12-18T07:38:46;-9.80;99.90
18153;DHT22;9202;51.578;7.734;2022-12-18T07:40:51;-9.70;99.90
18153;DHT22;9202;51.578;7.734;2022-12-18T07:42:55;-9.70;99.90
18153;DHT22;9202;51.578;7.734;2022-12-18T07:44:58;-9.70;99.90
18153;DHT22;9202;51.578;7.734;2022-12-18T07:47:02;-9.70;99.90
18153;DHT22;9202;51.578;7.734;2022-12-18T07:49:09;-9.60;99.90
18153;DHT22;9202;51.578;7.734;2022-12-18T07:51:13;-9.50;99.90
18153;DHT22;9202;51.578;7.734;2022-12-18T07:53:17;-9.50;99.90
18153;DHT22;9202;51.578;7.734;2022-12-18T07:55:20;-9.40;99.90
18153;DHT22;9202;51.578;7.734;2022-12-18T07:57:23;-9.40;99.90
18153;DHT22;9202;51.578;7.734;2022-12-18T07:59:28;-9.40;99.90
18153;DHT22;9202;51.578;7.734;2022-12-18T08:01:31;-9.30;99.90
18153;DHT22;9202;51.578;7.734;2022-12-18T08:03:35;-9.30;99.90
18153;DHT22;9202;51.578;7.734;2022-12-18T08:05:39;-9.30;99.90
18153;DHT22;9202;51.578;7.734;2022-12-18T08:07:43;-9.20;99.90
18153;DHT22;9202;51.578;7.734;2022-12-18T08:09:47;-9.10;99.90
18153;DHT22;9202;51.578;7.734;2022-12-18T08:11:50;-8.90;99.90
18153;DHT22;9202;51.578;7.734;2022-12-18T08:13:54;-8.80;99.90
18153;DHT22;9202;51.578;7.734;2022-12-18T08:15:58;-8.70;99.90
18153;DHT22;9202;51.578;7.734;2022-12-18T08:18:02;-8.60;99.90
18153;DHT22;9202;51.578;7.734;2022-12-18T08:20:08;-8.50;99.90
18153;DHT22;9202;51.578;7.734;2022-12-18T08:22:11;-8.50;99.90
18153;DHT22;9202;51.578;7.734;2022-12-18T08:24:15;-8.40;99.90
18153;DHT22;9202;51.578;7.734;2022-12-18T08:26:19;-8.30;99.90
18153;DHT22;9202;51.578;7.734;2022-12-18T08:28:23;-8.00;99.90
18153;DHT22;9202;51.578;7.734;2022-12-18T08:30:26;-7.70;99.90
18153;DHT22;9202;51.578;7.734;2022-12-18T08:32:30;-7.50;99.90
18153;DHT22;9202;51.578;7.734;2022-12-18T08:34:35;-7.30;99.90
18153;DHT22;9202;51.578;7.734;2022-12-18T08:36:37;-7.10;99.90
18153;DHT22;9202;51.578;7.734;2022-12-18T08:38:41;-6.90;99.90
18153;DHT22;9202;51.578;7.734;2022-12-18T08:40:44;-6.80;99.90
18153;DHT22;9202;51.578;7.734;2022-12-18T08:42:48;-6.60;99.90
18153;DHT22;9202;51.578;7.734;2022-12-18T08:45:10;-6.50;99.90
18153;DHT22;9202;51.578;7.734;2022-12-18T08:47:13;-6.30;99.90
18153;DHT22;9202;51.578;7.734;2022-12-18T08:49:16;-6.20;99.90
18153;DHT22;9202;51.578;7.734;2022-12-18T08:51:19;-6.20;99.90
18153;DHT22;9202;51.578;7.734;2022-12-18T08:53:24;-6.00;99.90
18153;DHT22;9202;51.578;7.734;2022-12-18T08:55:30;-5.90;99.90
18153;DHT22;9202;51.578;7.734;2022-12-18T08:57:42;-5.80;99.90
18153;DHT22;9202;51.578;7.734;2022-12-18T08:59:47;-5.70;99.90
18153;DHT22;9202;51.578;7.734;2022-12-18T09:01:53;-5.70;99.90
18153;DHT22;9202;51.578;7.734;2022-12-18T09:03:58;-5.60;99.90
18153;DHT22;9202;51.578;7.734;2022-12-18T09:06:12;-5.60;99.90
18153;DHT22;9202;51.578;7.734;2022-12-18T09:08:16;-5.50;99.90
18153;DHT22;9202;51.578;7.734;2022-12-18T09:10:20;-5.50;99.90
18153;DHT22;9202;51.578;7.734;2022-12-18T09:12:25;-5.50;99.90
18153;DHT22;9202;51.578;7.734;2022-12-18T09:14:30;-5.40;99.90
18153;DHT22;9202;51.578;7.734;2022-12-18T09:16:35;-5.40;99.90
18153;DHT22;9202;51.578;7.734;2022-12-18T09:18:39;-5.30;99.90
18153;DHT22;9202;51.578;7.734;2022-12-18T09:20:42;-5.30;99.90
18153;DHT22;9202;51.578;7.734;2022-12-18T09:22:46;-5.20;99.90
18153;DHT22;9202;51.578;7.734;2022-12-18T09:24:50;-5.10;99.90
18153;DHT22;9202;51.578;7.734;2022-12-18T09:26:55;-5.10;99.90
18153;DHT22;9202;51.578;7.734;2022-12-18T09:29:01;-5.10;99.90
18153;DHT22;9202;51.578;7.734;2022-12-18T09:31:07;-4.90;99.90
18153;DHT22;9202;51.578;7.734;2022-12-18T09:33:11;-4.90;99.90
18153;DHT22;9202;51.578;7.734;2022-12-18T09:35:13;-4.80;99.90
18153;DHT22;9202;51.578;7.734;2022-12-18T09:37:16;-4.80;99.90
18153;DHT22;9202;51.578;7.734;2022-12-18T09:39:18;-4.70;99.90
18153;DHT22;9202;51.578;7.734;2022-12-18T09:41:31;-4.60;99.90
18153;DHT22;9202;51.578;7.734;2022-12-18T09:43:35;-4.60;99.90
18153;DHT22;9202;51.578;7.734;2022-12-18T09:45:41;-4.40;99.90
18153;DHT22;9202;51.578;7.734;2022-12-18T09:47:43;-4.40;99.90
18153;DHT22;9202;51.578;7.734;2022-12-18T09:49:47;-4.30;99.90
18153;DHT22;9202;51.578;7.734;2022-12-18T09:51:52;-4.20;99.90
18153;DHT22;9202;51.578;7.734;2022-12-18T09:53:56;-4.20;99.90
18153;DHT22;9202;51.578;7.734;2022-12-18T09:56:00;-4.10;99.90
18153;DHT22;9202;51.578;7.734;2022-12-18T09:58:06;-4.00;99.90
18153;DHT22;9202;51.578;7.734;2022-12-18T10:00:13;-4.00;99.90
18153;DHT22;9202;51.578;7.734;2022-12-18T10:02:16;-3.90;99.90
18153;DHT22;9202;51.578;7.734;2022-12-18T10:04:19;-3.70;99.90
18153;DHT22;9202;51.578;7.734;2022-12-18T10:06:23;-3.60;99.90
18153;DHT22;9202;51.578;7.734;2022-12-18T10:08:30;-3.50;99.90
18153;DHT22;9202;51.578;7.734;2022-12-18T10:10:35;-3.30;99.90
18153;DHT22;9202;51.578;7.734;2022-12-18T10:12:40;-3.20;99.90
18153;DHT22;9202;51.578;7.734;2022-12-18T10:14:46;-3.00;99.90
18153;DHT22;9202;51.578;7.734;2022-12-18T10:16:50;-2.80;99.90
18153;DHT22;9202;51.578;7.734;2022-12-18T10:19:04;-2.70;99.90
18153;DHT22;9202;51.578;7.734;2022-12-18T10:21:09;-2.50;99.90
18153;DHT22;9202;51.578;7.734;2022-12-18T10:23:14;-2.40;99.90
18153;DHT22;9202;51.578;7.734;2022-12-18T10:25:18;-2.20;99.90
18153;DHT22;9202;51.578;7.734;2022-12-18T10:27:23;-2.20;99.90
18153;DHT22;9202;51.578;7.734;2022-12-18T10:29:26;-2.00;99.90
18153;DHT22;9202;51.578;7.734;2022-12-18T10:31:29;-2.00;99.90
18153;DHT22;9202;51.578;7.734;2022-12-18T10:33:33;-1.90;99.90
18153;DHT22;9202;51.578;7.734;2022-12-18T10:35:36;-1.90;99.90
18153;DHT22;9202;51.578;7.734;2022-12-18T10:37:39;-1.90;99.90
18153;DHT22;9202;51.578;7.734;2022-12-18T10:39:43;-1.80;99.90
18153;DHT22;9202;51.578;7.734;2022-12-18T10:41:46;-1.80;99.90
18153;DHT22;9202;51.578;7.734;2022-12-18T10:43:51;-1.70;99.90
18153;DHT22;9202;51.578;7.734;2022-12-18T10:46:14;-1.80;99.90
18153;DHT22;9202;51.578;7.734;2022-12-18T10:48:18;-1.80;99.90
18153;DHT22;9202;51.578;7.734;2022-12-18T10:50:24;-1.80;99.90
18153;DHT22;9202;51.578;7.734;2022-12-18T10:52:29;-1.80;99.90
18153;DHT22;9202;51.578;7.734;2022-12-18T10:54:32;-1.80;99.90
18153;DHT22;9202;51.578;7.734;2022-12-18T10:56:36;-1.80;99.90
18153;DHT22;9202;51.578;7.734;2022-12-18T10:58:40;-1.80;99.90
18153;DHT22;9202;51.578;7.734;2022-12-18T11:00:44;-1.80;99.90
18153;DHT22;9202;51.578;7.734;2022-12-18T11:02:48;-1.80;99.90
18153;DHT22;9202;51.578;7.734;2022-12-18T11:04:51;-1.80;99.90
18153;DHT22;9202;51.578;7.734;2022-12-18T11:06:56;-1.70;99.90
18153;DHT22;9202;51.578;7.734;2022-12-18T11:09:00;-1.70;99.90
18153;DHT22;9202;51.578;7.734;2022-12-18T11:11:07;-1.70;99.90
18153;DHT22;9202;51.578;7.734;2022-12-18T11:13:12;-1.70;99.90
18153;DHT22;9202;51.578;7.734;2022-12-18T11:15:15;-1.70;99.90
18153;DHT22;9202;51.578;7.734;2022-12-18T11:17:20;-1.60;99.90
18153;DHT22;9202;51.578;7.734;2022-12-18T11:19:28;-1.50;99.90
18153;DHT22;9202;51.578;7.734;2022-12-18T11:21:31;-1.50;99.90
18153;DHT22;9202;51.578;7.734;2022-12-18T11:23:36;-1.50;99.90
18153;DHT22;9202;51.578;7.734;2022-12-18T11:25:39;-1.50;99.90
18153;DHT22;9202;51.578;7.734;2022-12-18T11:27:47;-1.50;99.90
18153;DHT22;9202;51.578;7.734;2022-12-18T11:29:50;-1.50;99.90
18153;DHT22;9202;51.578;7.734;2022-12-18T11:31:53;-1.40;99.90
18153;DHT22;9202;51.578;7.734;2022-12-18T11:34:02;-1.40;99.90
18153;DHT22;9202;51.578;7.734;2022-12-18T11:36:08;-1.30;99.90
18153;DHT22;9202;51.578;7.734;2022-12-18T11:38:15;-1.30;99.90
18153;DHT22;9202;51.578;7.734;2022-12-18T11:40:19;-1.30;99.90
18153;DHT22;9202;51.578;7.734;2022-12-18T11:42:23;-1.30;99.90
18153;DHT22;9202;51.578;7.734;2022-12-18T11:44:27;-1.20;99.90
18153;DHT22;9202;51.578;7.734;2022-12-18T11:46:32;-1.10;99.90
18153;DHT22;9202;51.578;7.734;2022-12-18T11:48:37;-1.10;99.90
18153;DHT22;9202;51.578;7.734;2022-12-18T11:50:43;-1.00;99.90
18153;DHT22;9202;51.578;7.734;2022-12-18T11:52:46;-1.10;99.90
18153;DHT22;9202;51.578;7.734;2022-12-18T11:54:54;-1.10;99.90
18153;DHT22;9202;51.578;7.734;2022-12-18T11:57:02;-1.80;99.90
18153;DHT22;9202;51.578;7.734;2022-12-18T11:59:07;-1.20;99.90
18153;DHT22;9202;51.578;7.734;2022-12-18T12:01:12;-1.20;99.90
18153;DHT22;9202;51.578;7.734;2022-12-18T12:03:27;-1.20;99.90
18153;DHT22;9202;51.578;7.734;2022-12-18T12:05:31;-1.20;99.90
18153;DHT22;9202;51.578;7.734;2022-12-18T12:07:38;-1.10;99.90
18153;DHT22;9202;51.578;7.734;2022-12-18T12:09:44;-1.20;99.90
18153;DHT22;9202;51.578;7.734;2022-12-18T12:11:51;-1.10;99.90
18153;DHT22;9202;51.578;7.734;2022-12-18T12:13:59;-1.20;99.90
18153;DHT22;9202;51.578;7.734;2022-12-18T12:16:05;-1.20;99.90
18153;DHT22;9202;51.578;7.734;2022-12-18T12:18:11;-1.10;99.90
18153;DHT22;9202;51.578;7.734;2022-12-18T12:20:15;-1.10;99.90
18153;DHT22;9202;51.578;7.734;2022-12-18T12:22:20;-1.10;99.90
18153;DHT22;9202;51.578;7.734;2022-12-18T12:24:26;-1.10;99.90
18153;DHT22;9202;51.578;7.734;2022-12-18T12:26:32;-1.10;99.90
18153;DHT22;9202;51.578;7.734;2022-12-18T12:28:46;-1.10;99.90
18153;DHT22;9202;51.578;7.734;2022-12-18T12:30:52;-1.10;99.90
18153;DHT22;9202;51.578;7.734;2022-12-18T12:33:08;-1.10;99.90
18153;DHT22;9202;51.578;7.734;2022-12-18T12:35:14;-1.10;99.90
18153;DHT22;9202;51.578;7.734;2022-12-18T12:37:21;-1.00;99.90
18153;DHT22;9202;51.578;7.734;2022-12-18T12:39:25;-1.00;99.90
18153;DHT22;9202;51.578;7.734;2022-12-18T12:41:30;-0.90;99.90
18153;DHT22;9202;51.578;7.734;2022-12-18T12:43:51;-0.90;99.90
18153;DHT22;9202;51.578;7.734;2022-12-18T12:45:56;-0.80;99.90
18153;DHT22;9202;51.578;7.734;2022-12-18T12:48:00;-0.80;99.90
18153;DHT22;9202;51.578;7.734;2022-12-18T12:50:11;-0.80;99.90
18153;DHT22;9202;51.578;7.734;2022-12-18T12:52:13;-0.80;99.90
18153;DHT22;9202;51.578;7.734;2022-12-18T12:54:19;-0.80;99.90
18153;DHT22;9202;51.578;7.734;2022-12-18T12:56:24;-0.90;99.90
18153;DHT22;9202;51.578;7.734;2022-12-18T12:58:31;-0.90;99.90
18153;DHT22;9202;51.578;7.734;2022-12-18T13:00:36;-0.70;99.90
18153;DHT22;9202;51.578;7.734;2022-12-18T13:02:42;-0.70;99.90
18153;DHT22;9202;51.578;7.734;2022-12-18T13:04:45;-0.80;99.90
18153;DHT22;9202;51.578;7.734;2022-12-18T13:06:56;-0.80;99.90
18153;DHT22;9202;51.578;7.734;2022-12-18T13:08:56;-0.70;99.90
18153;DHT22;9202;51.578;7.734;2022-12-18T13:10:59;-0.80;99.90
18153;DHT22;9202;51.578;7.734;2022-12-18T13:13:21;-0.80;99.90